createdAt,value
2022-12-04T00:02:08.661Z,101752.16
2022-12-04T00:04:35.262Z,101761.09
2022-12-04T00:07:02.460Z,101765.47
2022-12-04T00:09:29.047Z,101758.38
2022-12-04T00:11:55.666Z,101766.94
2022-12-04T00:14:22.262Z,101765.47
2022-12-04T00:16:50.497Z,101767.78
2022-12-04T00:19:17.419Z,101752.06
2022-12-04T00:21:45.305Z,101752.91
2022-12-04T00:24:12.264Z,101756.16
2022-12-04T00:26:38.975Z,101764.41
2022-12-04T00:29:05.573Z,101754.94
2022-12-04T00:31:32.288Z,101750.53
2022-12-04T00:34:00.339Z,101754.25
2022-12-04T00:36:29.358Z,101761.66
2022-12-04T00:38:56.546Z,101756.25
2022-12-04T00:41:25.812Z,101750.28
2022-12-04T00:43:53.254Z,101746.00
2022-12-04T00:46:20.811Z,101744.63
2022-12-04T00:48:47.485Z,101747.75
2022-12-04T00:51:17.047Z,101740.19
2022-12-04T00:53:44.232Z,101737.72
2022-12-04T00:56:14.311Z,101748.13
2022-12-04T00:58:41.735Z,101752.50
2022-12-04T01:01:16.981Z,101746.81
2022-12-04T01:03:43.692Z,101750.75
2022-12-04T01:06:22.226Z,101748.56
2022-12-04T01:08:50.896Z,101750.28
2022-12-04T01:11:18.332Z,101748.41
2022-12-04T01:13:45.799Z,101745.91
2022-12-04T01:16:24.151Z,101745.78
2022-12-04T01:18:51.403Z,101739.00
2022-12-04T01:21:19.033Z,101740.53
2022-12-04T01:23:45.781Z,101746.63
2022-12-04T01:26:13.136Z,101745.78
2022-12-04T01:28:40.226Z,101748.81
2022-12-04T01:31:13.809Z,101740.53
2022-12-04T01:33:41.348Z,101740.03
2022-12-04T01:36:10.887Z,101735.28
2022-12-04T01:38:38.672Z,101734.78
2022-12-04T01:41:06.072Z,101741.03
2022-12-04T01:43:34.667Z,101747.47
2022-12-04T01:46:02.534Z,101750.34
2022-12-04T01:48:33.737Z,101735.13
2022-12-04T01:51:10.683Z,101726.81
2022-12-04T01:53:40.197Z,101721.94
2022-12-04T01:56:07.532Z,101719.38
2022-12-04T01:58:41.210Z,101715.66
2022-12-04T02:01:09.579Z,101727.34
2022-12-04T02:03:37.791Z,101715.53
2022-12-04T02:06:05.036Z,101712.13
2022-12-04T02:08:32.259Z,101708.75
2022-12-04T02:11:20.263Z,101707.38
2022-12-04T02:14:18.444Z,101711.81
2022-12-04T02:16:49.312Z,101711.44
2022-12-04T02:19:38.048Z,101706.34
2022-12-04T02:22:21.092Z,101703.34
2022-12-04T02:25:06.527Z,101702.00
2022-12-04T02:27:46.477Z,101693.34
2022-12-04T02:30:14.122Z,101699.78
2022-12-04T02:32:46.424Z,101700.28
2022-12-04T02:35:28.808Z,101693.66
2022-12-04T02:38:06.634Z,101683.91
2022-12-04T02:40:45.674Z,101682.00
2022-12-04T02:43:41.581Z,101681.31
2022-12-04T02:46:17.532Z,101674.91
2022-12-04T02:48:49.231Z,101658.16
2022-12-04T02:51:19.595Z,101662.69
2022-12-04T02:53:53.539Z,101668.13
2022-12-04T02:56:26.025Z,101675.44
2022-12-04T02:58:59.842Z,101669.28
2022-12-04T03:04:20.078Z,101675.91
2022-12-04T03:06:52.763Z,101676.44
2022-12-04T03:09:28.104Z,101660.22
2022-12-04T03:12:00.973Z,101668.16
2022-12-04T03:14:39.204Z,101671.03
2022-12-04T03:17:17.679Z,101659.69
2022-12-04T03:19:51.313Z,101664.94
2022-12-04T03:22:21.967Z,101666.78
2022-12-04T03:24:52.738Z,101664.72
2022-12-04T03:27:43.410Z,101669.13
2022-12-04T03:30:22.129Z,101665.72
2022-12-04T03:33:26.947Z,101671.78
2022-12-04T03:36:02.719Z,101678.69
2022-12-04T03:38:39.238Z,101684.28
2022-12-04T03:41:18.531Z,101687.16
2022-12-04T03:43:53.567Z,101678.34
2022-12-04T03:46:36.676Z,101673.63
2022-12-04T03:49:20.697Z,101677.50
2022-12-04T03:52:02.555Z,101681.88
2022-12-04T03:54:34.227Z,101674.94
2022-12-04T03:57:06.825Z,101671.06
2022-12-04T03:59:43.411Z,101669.38
2022-12-04T04:02:15.534Z,101666.69
2022-12-04T04:04:47.940Z,101650.44
2022-12-04T04:07:35.552Z,101664.63
2022-12-04T04:10:08.265Z,101651.28
2022-12-04T04:12:42.344Z,101659.38
2022-12-04T04:15:32.417Z,101657.50
2022-12-04T04:18:20.128Z,101646.34
2022-12-04T04:21:11.438Z,101651.22
2022-12-04T04:24:01.360Z,101649.69
2022-12-04T04:26:32.062Z,101653.75
2022-12-04T04:28:58.635Z,101640.88
2022-12-04T04:31:38.547Z,101666.56
2022-12-04T04:34:23.362Z,101674.78
2022-12-04T04:36:56.116Z,101665.16
2022-12-04T04:39:37.003Z,101667.69
2022-12-04T04:42:30.095Z,101678.47
2022-12-04T04:45:34.985Z,101664.28
2022-12-04T04:48:12.104Z,101669.84
2022-12-04T04:50:39.318Z,101670.84
2022-12-04T04:53:12.038Z,101676.25
2022-12-04T04:55:39.391Z,101666.97
2022-12-04T04:58:18.454Z,101669.16
2022-12-04T05:00:48.892Z,101672.88
2022-12-04T05:03:15.489Z,101670.00
2022-12-04T05:05:42.091Z,101668.84
2022-12-04T05:08:08.810Z,101659.72
2022-12-04T05:10:35.465Z,101667.47
2022-12-04T05:13:01.997Z,101667.47
2022-12-04T05:15:28.621Z,101663.75
2022-12-04T05:17:55.186Z,101666.63
2022-12-04T05:20:21.771Z,101668.81
2022-12-04T05:22:48.485Z,101671.34
2022-12-04T05:25:15.100Z,101668.66
2022-12-04T05:27:41.666Z,101673.72
2022-12-04T05:30:09.910Z,101671.19
2022-12-04T05:32:36.483Z,101675.72
2022-12-04T05:35:09.249Z,101665.78
2022-12-04T05:37:39.376Z,101660.38
2022-12-04T05:40:07.334Z,101659.88
2022-12-04T05:42:33.986Z,101650.22
2022-12-04T05:45:00.562Z,101657.19
2022-12-04T05:47:27.120Z,101659.66
2022-12-04T05:49:53.870Z,101659.31
2022-12-04T05:52:20.667Z,101664.22
2022-12-04T05:54:47.239Z,101663.03
2022-12-04T05:57:13.802Z,101668.44
2022-12-04T05:59:40.427Z,101657.81
2022-12-04T06:02:07.000Z,101657.28
2022-12-04T06:04:33.774Z,101653.75
2022-12-04T06:07:00.339Z,101653.94
2022-12-04T06:09:26.957Z,101654.44
2022-12-04T06:11:57.367Z,101655.78
2022-12-04T06:14:24.238Z,101660.16
2022-12-04T06:16:50.864Z,101655.31
2022-12-04T06:19:19.275Z,101647.69
2022-12-04T06:21:48.548Z,101651.78
2022-12-04T06:24:20.670Z,101652.25
2022-12-04T06:27:25.132Z,101654.09
2022-12-04T06:29:34.253Z,101642.28
2022-12-04T06:32:01.004Z,101642.09
2022-12-04T06:34:27.687Z,101637.16
2022-12-04T06:36:54.366Z,101639.56
2022-12-04T06:39:21.066Z,101637.72
2022-12-04T06:41:47.818Z,101639.56
2022-12-04T06:44:15.756Z,101649.53
2022-12-04T06:46:46.906Z,101650.38
2022-12-04T06:49:14.409Z,101646.44
2022-12-04T06:51:41.178Z,101653.53
2022-12-04T06:54:10.788Z,101666.00
2022-12-04T06:56:37.680Z,101654.19
2022-12-04T06:59:05.358Z,101654.75
2022-12-04T07:01:34.412Z,101646.09
2022-12-04T07:04:03.912Z,101647.78
2022-12-04T07:06:33.734Z,101646.66
2022-12-04T07:09:11.938Z,101648.19
2022-12-04T07:11:40.165Z,101644.97
2022-12-04T07:14:07.284Z,101644.25
2022-12-04T07:16:39.969Z,101639.03
2022-12-04T07:19:09.285Z,101644.97
2022-12-04T07:21:35.905Z,101649.19
2022-12-04T07:24:02.552Z,101649.53
2022-12-04T07:26:32.980Z,101655.44
2022-12-04T07:28:59.958Z,101653.56
2022-12-04T07:31:28.533Z,101649.53
2022-12-04T07:33:56.132Z,101650.94
2022-12-04T07:36:24.840Z,101650.59
2022-12-04T07:38:51.903Z,101647.75
2022-12-04T07:41:19.276Z,101651.59
2022-12-04T07:43:46.269Z,101655.31
2022-12-04T07:46:16.265Z,101642.22
2022-12-04T07:48:43.588Z,101648.50
2022-12-04T07:51:14.395Z,101647.00
2022-12-04T07:53:42.043Z,101641.41
2022-12-04T07:56:10.137Z,101651.22
2022-12-04T07:58:37.133Z,101644.13
2022-12-04T08:01:09.088Z,101652.22
2022-12-04T08:03:35.886Z,101653.00
2022-12-04T08:06:03.921Z,101658.41
2022-12-04T08:08:30.766Z,101654.66
2022-12-04T08:10:57.920Z,101662.41
2022-12-04T08:13:24.605Z,101667.16
2022-12-04T08:15:51.435Z,101675.72
2022-12-04T08:18:18.243Z,101672.72
2022-12-04T08:20:45.347Z,101673.38
2022-12-04T08:23:11.925Z,101674.03
2022-12-04T08:25:40.356Z,101668.25
2022-12-04T08:28:07.610Z,101683.00
2022-12-04T08:30:35.717Z,101688.72
2022-12-04T08:33:02.967Z,101687.53
2022-12-04T08:35:29.582Z,101685.16
2022-12-04T08:37:56.215Z,101690.34
2022-12-04T08:40:23.367Z,101678.53
2022-12-04T08:42:50.035Z,101686.47
2022-12-04T08:45:16.707Z,101680.22
2022-12-04T08:47:45.841Z,101676.69
2022-12-04T08:50:16.215Z,101675.00
2022-12-04T08:52:42.864Z,101679.88
2022-12-04T08:55:09.809Z,101685.78
2022-12-04T08:57:37.771Z,101682.25
2022-12-04T09:00:05.332Z,101682.25
2022-12-04T09:02:31.901Z,101684.28
2022-12-04T09:04:58.579Z,101685.28
2022-12-04T09:07:25.201Z,101680.56
2022-12-04T09:09:51.761Z,101676.50
2022-12-04T09:12:19.076Z,101680.72
2022-12-04T09:14:45.736Z,101675.00
2022-12-04T09:17:12.305Z,101673.47
2022-12-04T09:19:39.022Z,101678.38
2022-12-04T09:22:05.568Z,101684.94
2022-12-04T09:24:32.142Z,101682.59
2022-12-04T09:26:58.738Z,101688.00
2022-12-04T09:29:26.253Z,101684.63
2022-12-04T09:31:52.874Z,101683.63
2022-12-04T09:34:19.498Z,101668.41
2022-12-04T09:36:46.321Z,101665.16
2022-12-04T09:39:12.875Z,101659.31
2022-12-04T09:42:31.029Z,101651.00
2022-12-04T09:45:17.676Z,101663.31
2022-12-04T09:47:47.474Z,101671.09
2022-12-04T09:50:29.372Z,101666.69
2022-12-04T09:53:08.971Z,101664.00
2022-12-04T09:55:54.666Z,101659.94
2022-12-04T09:58:25.204Z,101665.16
2022-12-04T10:00:53.497Z,101660.59
2022-12-04T10:03:25.106Z,101664.69
2022-12-04T10:06:04.826Z,101650.56
2022-12-04T10:08:38.494Z,101655.09
2022-12-04T10:11:32.751Z,101646.84
2022-12-04T10:13:59.546Z,101645.00
2022-12-04T10:17:02.776Z,101643.13
2022-12-04T10:19:32.759Z,101636.38
2022-12-04T10:22:22.943Z,101637.75
2022-12-04T10:25:20.832Z,101639.44
2022-12-04T10:27:50.932Z,101634.03
2022-12-04T10:30:26.466Z,101635.53
2022-12-04T10:33:25.569Z,101636.06
2022-12-04T10:35:53.997Z,101635.19
2022-12-04T10:38:42.679Z,101631.50
2022-12-04T10:41:29.041Z,101625.59
2022-12-04T10:43:56.018Z,101613.63
2022-12-04T10:46:25.640Z,101629.97
2022-12-04T10:49:02.589Z,101612.59
2022-12-04T10:51:40.511Z,101613.63
2022-12-04T10:54:35.809Z,101621.03
2022-12-04T10:57:05.418Z,101608.38
2022-12-04T10:59:32.115Z,101601.47
2022-12-04T11:02:15.699Z,101601.28
2022-12-04T11:04:43.378Z,101598.94
2022-12-04T11:07:23.321Z,101601.78
2022-12-04T11:10:05.768Z,101602.16
2022-12-04T11:12:32.767Z,101600.63
2022-12-04T11:15:04.082Z,101601.47
2022-12-04T11:17:30.637Z,101598.94
2022-12-04T11:20:33.387Z,101599.94
2022-12-04T11:23:00.393Z,101598.94
2022-12-04T11:25:30.911Z,101600.09
2022-12-04T11:28:01.210Z,101598.38
2022-12-04T11:30:38.630Z,101605.00
2022-12-04T11:33:16.531Z,101581.06
2022-12-04T11:35:43.278Z,101573.44
2022-12-04T11:38:17.726Z,101579.38
2022-12-04T11:41:03.803Z,101577.66
2022-12-04T11:43:33.610Z,101572.59
2022-12-04T11:46:06.828Z,101571.94
2022-12-04T11:48:43.804Z,101577.34
2022-12-04T11:51:50.057Z,101587.81
2022-12-04T11:54:39.879Z,101588.81
2022-12-04T11:57:26.853Z,101575.66
2022-12-04T11:59:59.786Z,101569.09
2022-12-04T12:02:41.729Z,101572.63
2022-12-04T12:05:25.225Z,101564.16
2022-12-04T12:08:17.031Z,101559.78
2022-12-04T12:11:01.410Z,101554.06
2022-12-04T12:13:34.063Z,101563.84
2022-12-04T12:16:17.760Z,101553.22
2022-12-04T12:19:08.807Z,101548.69
2022-12-04T12:22:13.234Z,101554.75
2022-12-04T12:25:16.637Z,101558.28
2022-12-04T12:28:01.705Z,101558.97
2022-12-04T12:30:40.460Z,101562.00
2022-12-04T12:33:24.917Z,101569.94
2022-12-04T12:36:08.513Z,101566.22
2022-12-04T12:38:46.146Z,101569.94
2022-12-04T12:41:17.104Z,101569.59
2022-12-04T12:44:04.551Z,101572.28
2022-12-04T12:46:53.466Z,101573.31
2022-12-04T12:49:30.044Z,101570.44
2022-12-04T12:52:17.352Z,101575.84
2022-12-04T12:55:14.317Z,101576.00
2022-12-04T12:57:50.045Z,101572.63
2022-12-04T13:00:18.181Z,101566.56
2022-12-04T13:02:53.862Z,101567.22
2022-12-04T13:05:37.554Z,101567.22
2022-12-04T13:08:10.805Z,101553.53
2022-12-04T13:11:03.161Z,101548.69
2022-12-04T13:13:42.954Z,101547.13
2022-12-04T13:16:26.690Z,101535.81
2022-12-04T13:19:06.298Z,101536.66
2022-12-04T13:21:39.917Z,101544.59
2022-12-04T13:24:28.216Z,101539.88
2022-12-04T13:27:07.626Z,101541.91
2022-12-04T13:30:05.577Z,101535.34
2022-12-04T13:32:51.072Z,101517.44
2022-12-04T13:35:45.023Z,101519.28
2022-12-04T13:38:30.161Z,101519.97
2022-12-04T13:41:03.822Z,101521.66
2022-12-04T13:43:42.539Z,101524.38
2022-12-04T13:46:30.265Z,101519.47
2022-12-04T13:49:28.947Z,101516.47
2022-12-04T13:51:57.636Z,101512.88
2022-12-04T13:54:26.477Z,101509.34
2022-12-04T13:56:56.299Z,101503.94
2022-12-04T13:59:29.498Z,101507.66
2022-12-04T14:02:03.510Z,101510.34
2022-12-04T14:04:33.075Z,101520.00
2022-12-04T14:07:03.657Z,101505.81
2022-12-04T14:09:40.940Z,101501.78
2022-12-04T14:12:12.788Z,101509.34
2022-12-04T14:15:04.286Z,101508.03
2022-12-04T14:17:37.422Z,101517.97
2022-12-04T14:20:25.953Z,101511.91
2022-12-04T14:22:53.136Z,101516.28
2022-12-04T14:25:19.572Z,101526.75
2022-12-04T14:27:51.970Z,101517.66
2022-12-04T14:30:23.210Z,101518.16
2022-12-04T14:32:53.979Z,101520.00
2022-12-04T14:35:23.918Z,101529.97
2022-12-04T14:37:55.530Z,101520.00
2022-12-04T14:40:28.905Z,101528.09
2022-12-04T14:42:56.036Z,101523.19
2022-12-04T14:45:38.859Z,101521.69
2022-12-04T14:48:22.635Z,101522.00
2022-12-04T14:51:16.901Z,101518.63
2022-12-04T14:53:57.322Z,101523.19
2022-12-04T14:56:52.144Z,101515.09
2022-12-04T14:59:21.512Z,101516.25
2022-12-04T15:01:50.514Z,101516.94
2022-12-04T15:04:23.223Z,101516.94
2022-12-04T15:06:55.507Z,101525.69
2022-12-04T15:09:45.985Z,101524.03
2022-12-04T15:12:36.971Z,101519.63
2022-12-04T15:15:25.723Z,101522.16
2022-12-04T15:18:10.356Z,101514.91
2022-12-04T15:20:49.135Z,101514.91
2022-12-04T15:23:18.920Z,101514.41
2022-12-04T15:26:17.672Z,101512.72
2022-12-04T15:28:53.507Z,101510.34
2022-12-04T15:31:30.534Z,101511.03
2022-12-04T15:34:01.747Z,101513.06
2022-12-04T15:37:02.243Z,101507.97
2022-12-04T15:39:32.443Z,101511.84
2022-12-04T15:42:26.479Z,101512.22
2022-12-04T15:45:08.262Z,101514.91
2022-12-04T15:47:40.763Z,101516.75
2022-12-04T15:50:28.417Z,101510.19
2022-12-04T15:53:20.696Z,101515.25
2022-12-04T15:55:53.794Z,101507.66
2022-12-04T15:58:26.699Z,101509.19
2022-12-04T16:00:56.797Z,101514.56
2022-12-04T16:03:25.689Z,101520.97
2022-12-04T16:06:22.642Z,101517.94
2022-12-04T16:09:13.954Z,101532.28
2022-12-04T16:11:41.844Z,101528.22
2022-12-04T16:14:08.401Z,101533.13
2022-12-04T16:16:42.276Z,101517.44
2022-12-04T16:19:16.558Z,101527.38
2022-12-04T16:21:43.451Z,101520.81
2022-12-04T16:24:12.215Z,101535.50
2022-12-04T16:26:38.795Z,101526.03
2022-12-04T16:29:05.815Z,101526.03
2022-12-04T16:31:32.682Z,101515.59
2022-12-04T16:33:59.414Z,101517.13
2022-12-04T16:36:26.184Z,101511.06
2022-12-04T16:38:52.903Z,101515.44
2022-12-04T16:41:20.278Z,101500.78
2022-12-04T16:43:55.174Z,101490.00
2022-12-04T16:46:24.971Z,101494.38
2022-12-04T16:48:52.411Z,101496.06
2022-12-04T16:51:22.900Z,101499.59
2022-12-04T16:53:51.349Z,101491.00
2022-12-04T16:56:19.006Z,101492.69
2022-12-04T16:58:45.807Z,101485.91
2022-12-04T17:01:25.355Z,101485.22
2022-12-04T17:03:52.618Z,101501.13
2022-12-04T17:06:19.304Z,101501.97
2022-12-04T17:08:46.284Z,101492.84
2022-12-04T17:11:14.515Z,101490.97
2022-12-04T17:13:41.643Z,101495.69
2022-12-04T17:16:08.786Z,101497.03
2022-12-04T17:18:35.637Z,101490.97
2022-12-04T17:21:09.816Z,101503.09
2022-12-04T17:23:37.198Z,101502.97
2022-12-04T17:26:06.544Z,101494.88
2022-12-04T17:28:33.884Z,101502.63
2022-12-04T17:31:02.549Z,101490.63
2022-12-04T17:33:29.150Z,101484.22
2022-12-04T17:35:56.023Z,101489.47
2022-12-04T17:38:22.913Z,101472.41
2022-12-04T17:41:00.266Z,101475.31
2022-12-04T17:43:29.281Z,101482.91
2022-12-04T17:45:56.920Z,101482.59
2022-12-04T17:48:24.395Z,101480.75
2022-12-04T17:50:51.284Z,101488.16
2022-12-04T17:53:17.906Z,101478.88
2022-12-04T17:55:44.596Z,101478.38
2022-12-04T17:58:11.141Z,101481.25
2022-12-04T18:00:38.002Z,101484.78
2022-12-04T18:03:04.676Z,101480.56
2022-12-04T18:05:31.313Z,101484.94
2022-12-04T18:07:58.287Z,101483.06
2022-12-04T18:10:24.954Z,101482.72
2022-12-04T18:12:51.570Z,101486.63
2022-12-04T18:15:18.209Z,101484.63
2022-12-04T18:17:44.856Z,101484.94
2022-12-04T18:20:11.757Z,101490.88
2022-12-04T18:22:38.306Z,101491.16
2022-12-04T18:25:05.387Z,101481.38
2022-12-04T18:27:32.184Z,101482.56
2022-12-04T18:30:00.766Z,101488.97
2022-12-04T18:32:27.366Z,101472.41
2022-12-04T18:34:53.965Z,101473.78
2022-12-04T18:37:20.559Z,101472.28
2022-12-04T18:39:49.529Z,101465.34
2022-12-04T18:42:16.309Z,101460.94
2022-12-04T18:44:42.943Z,101470.59
2022-12-04T18:47:09.550Z,101461.78
2022-12-04T18:49:36.168Z,101461.31
2022-12-04T18:52:02.890Z,101456.94
2022-12-04T18:54:29.432Z,101466.72
2022-12-04T18:56:56.016Z,101464.19
2022-12-04T18:59:25.477Z,101468.75
2022-12-04T19:01:54.386Z,101469.59
2022-12-04T19:04:24.071Z,101472.97
2022-12-04T19:06:54.265Z,101470.25
2022-12-04T19:09:40.925Z,101472.97
2022-12-04T19:12:12.120Z,101476.50
2022-12-04T19:14:39.769Z,101473.97
2022-12-04T19:17:06.489Z,101474.63
2022-12-04T19:19:33.123Z,101477.69
2022-12-04T19:22:01.229Z,101481.72
2022-12-04T19:24:27.842Z,101475.50
2022-12-04T19:26:54.802Z,101479.69
2022-12-04T19:29:21.457Z,101476.16
2022-12-04T19:31:48.218Z,101485.44
2022-12-04T19:34:15.023Z,101486.28
2022-12-04T19:36:42.600Z,101482.06
2022-12-04T19:39:10.136Z,101490.16
2022-12-04T19:41:38.585Z,101485.59
2022-12-04T19:44:20.095Z,101490.03
2022-12-04T19:46:52.035Z,101484.59
2022-12-04T19:49:18.981Z,101481.56
2022-12-04T19:51:46.919Z,101487.63
2022-12-04T19:54:14.196Z,101490.50
2022-12-04T19:56:41.873Z,101481.06
2022-12-04T19:59:08.792Z,101484.44
2022-12-04T20:01:35.968Z,101486.78
2022-12-04T20:04:05.704Z,101477.84
2022-12-04T20:06:37.978Z,101485.94
2022-12-04T20:09:10.223Z,101477.16
2022-12-04T20:11:37.506Z,101465.53
2022-12-04T20:14:05.734Z,101474.66
2022-12-04T20:16:33.757Z,101470.75
2022-12-04T20:19:02.038Z,101470.75
2022-12-04T20:21:30.651Z,101464.69
2022-12-04T20:24:00.210Z,101459.97
2022-12-04T20:26:30.546Z,101454.91
2022-12-04T20:28:58.548Z,101459.63
2022-12-04T20:31:28.472Z,101454.25
2022-12-04T20:33:57.193Z,101463.19
2022-12-04T20:36:28.886Z,101453.53
2022-12-04T20:38:58.666Z,101454.91
2022-12-04T20:41:29.741Z,101453.41
2022-12-04T20:44:00.004Z,101460.97
2022-12-04T20:46:31.653Z,101451.72
2022-12-04T20:49:00.829Z,101455.75
2022-12-04T20:51:30.059Z,101455.75
2022-12-04T20:53:58.163Z,101456.59
2022-12-04T20:56:27.007Z,101449.50
2022-12-04T20:58:55.004Z,101444.97
2022-12-04T21:01:21.714Z,101450.19
2022-12-04T21:03:48.421Z,101446.47
2022-12-04T21:06:17.891Z,101449.38
2022-12-04T21:08:53.578Z,101455.06
2022-12-04T21:11:27.683Z,101449.69
2022-12-04T21:14:14.763Z,101446.16
2022-12-04T21:16:41.807Z,101448.56
2022-12-04T21:19:09.956Z,101444.19
2022-12-04T21:21:37.079Z,101441.78
2022-12-04T21:24:05.290Z,101452.25
2022-12-04T21:26:33.707Z,101445.28
2022-12-04T21:29:01.782Z,101433.25
2022-12-04T21:31:29.648Z,101444.72
2022-12-04T21:34:00.189Z,101457.69
2022-12-04T21:36:28.316Z,101447.50
2022-12-04T21:38:55.633Z,101435.81
2022-12-04T21:41:41.155Z,101444.91
2022-12-04T21:44:10.407Z,101436.78
2022-12-04T21:46:37.211Z,101442.72
2022-12-04T21:49:04.430Z,101440.31
2022-12-04T21:51:56.413Z,101429.69
2022-12-04T21:54:18.894Z,101429.00
2022-12-04T21:56:45.468Z,101435.56
2022-12-04T21:59:12.550Z,101430.91
2022-12-04T22:01:39.761Z,101430.63
2022-12-04T22:04:06.389Z,101425.69
2022-12-04T22:06:36.149Z,101426.03
2022-12-04T22:09:06.225Z,101441.81
2022-12-04T22:11:33.040Z,101438.44
2022-12-04T22:13:59.629Z,101435.34
2022-12-04T22:16:30.222Z,101425.03
2022-12-04T22:18:58.327Z,101432.97
2022-12-04T22:21:26.392Z,101420.56
2022-12-04T22:24:03.106Z,101431.72
2022-12-04T22:26:31.259Z,101432.84
2022-12-04T22:28:58.158Z,101434.53
2022-12-04T22:31:27.344Z,101429.31
2022-12-04T22:33:55.609Z,101434.25
2022-12-04T22:36:27.762Z,101436.94
2022-12-04T22:39:11.049Z,101430.03
2022-12-04T22:41:38.315Z,101421.78
2022-12-04T22:44:05.863Z,101427.44
2022-12-04T22:46:32.979Z,101424.06
2022-12-04T22:49:00.433Z,101422.34
2022-12-04T22:51:27.811Z,101417.59
2022-12-04T22:53:57.287Z,101412.81
2022-12-04T22:56:23.814Z,101411.16
2022-12-04T22:58:51.300Z,101409.31
2022-12-04T23:01:23.405Z,101408.44
2022-12-04T23:03:50.567Z,101406.09
2022-12-04T23:06:19.369Z,101408.13
2022-12-04T23:08:47.182Z,101399.66
2022-12-04T23:11:17.440Z,101398.81
2022-12-04T23:13:49.170Z,101403.03
2022-12-04T23:16:20.003Z,101410.97
2022-12-04T23:18:47.277Z,101408.94
2022-12-04T23:21:14.943Z,101413.16
2022-12-04T23:23:43.293Z,101418.22
2022-12-04T23:26:16.090Z,101404.13
2022-12-04T23:28:43.058Z,101404.97
2022-12-04T23:31:11.110Z,101404.91
2022-12-04T23:33:39.830Z,101398.25
2022-12-04T23:36:08.113Z,101395.44
2022-12-04T23:38:36.901Z,101399.94
2022-12-04T23:41:18.250Z,101392.56
2022-12-04T23:43:45.778Z,101404.72
2022-12-04T23:46:16.009Z,101390.34
2022-12-04T23:48:44.455Z,101395.19
2022-12-04T23:51:13.508Z,101395.75
2022-12-04T23:53:40.800Z,101380.34
2022-12-04T23:56:13.334Z,101384.66
2022-12-04T23:58:40.799Z,101386.81
